Hueysville, KY (41640)

4:08 PM EDT on August 30, 2014 (GMT -0400)
Middle Creek VFD Station 2 | Change Station
CLOSE
Current Station
Personal Weather Station
Location: Prestonsburg, KY
Elevation: 689 ft
Nearby Weather Stations

Elev 689 ft 37.64 °N, 82.85 °W | Updated 13 minutes ago

Partly Cloudy
Partly Cloudy
92.7 °F
Feels Like 104 °F
N
0.0
Wind Variable Wind from North

Today
High -- | Low -- °F
--% Chance of Precip.
Yesterday
High -- | Low -- °F
Precip. -- in
6:59 AM 8:03 PM
Waxing Crescent, 24% visible
Pressure 30.05 in
Visibility 10.0 miles
Clouds Few 5000 ft
Heat Index 104 °F
Dew Point 75 °F
Humidity 57%
Rainfall 0.00 in
Snow Depth Not available.
UV 7 out of 12
Pollen 10.10 out of 12
Air Quality Not available.
Flu Activity Not available.
METAR KJKL 301953Z AUTO VRB05KT 10SM FEW050 31/20 A3010 RMK AO2 SLP176 T03110200 $

More Conditions Fewer Conditions

Pressure 30.05 in
Visibility 10.0 miles
Clouds Few 5000 ft
Heat Index 104 °F
Dew Point 75 °F
Humidity 57%
Rainfall 0.00 in
Snow Depth Not available.
UV 7 out of 12
Pollen 10.10 out of 12
Air Quality Not available.
Flu Activity Not available.
METAR KJKL 301953Z AUTO VRB05KT 10SM FEW050 31/20 A3010 RMK AO2 SLP176 T03110200 $

More Conditions Fewer Conditions

10-Day Weather Forecast

Almanac

Astronomy

Aug. 30, 2014 Rise Set
Actual Time 6:59 AM EDT 8:03 PM EDT
Civil Twilight 6:33 AM EDT 8:30 PM EDT
Nautical Twilight 6:01 AM EDT 9:01 PM EDT
Astronomical Twilight 5:27 AM EDT 9:34 PM EDT
Moon 11:40 AM EDT 10:43 PM EDT
Length of Visible Light 13h 56m
Length of Day
13h 03m
Tomorrow will be 2m 18s shorter.
Waxing Crescent, 24% of the Moon is Illuminated
Today
Waxing Crescent
Sep 2
First Quarter
Sep 8
Full
Sep 15
Last Quarter
Sep 24
New

Today's Extremes

State Highs State Lows

Community

WunderPhotos

Upload Photos

1,748,620 photos uploaded!

WunderBlogs® & News

Nearby

Snow Depth

Station Depth Elevation
No new snow has been reported.

Earthquake Activity

City Distance Mag. Time & Date
No recent earthquake activity has been reported nearby.
Minimum magnitude displayed is 2.5.

Coastal Water Temperatures

Place Temperature
No Stations Reporting

Nearby Weather Stations